createdAt,value
2019-03-25T00:01:06.814Z,2.53
2019-03-25T00:03:38.147Z,3.27
2019-03-25T00:06:10.542Z,3.67
2019-03-25T00:08:41.835Z,3.87
2019-03-25T00:11:13.303Z,2.57
2019-03-25T00:13:44.573Z,3.10
2019-03-25T00:16:15.953Z,2.77
2019-03-25T00:18:47.219Z,2.67
2019-03-25T00:21:18.508Z,2.87
2019-03-25T00:23:49.788Z,2.97
2019-03-25T00:26:21.831Z,2.93
2019-03-25T00:28:53.107Z,1.97
2019-03-25T00:31:24.395Z,3.80
2019-03-25T00:33:55.699Z,2.27
2019-03-25T00:36:26.999Z,3.23
2019-03-25T00:38:59.159Z,2.83
2019-03-25T00:41:30.454Z,2.90
2019-03-25T00:44:01.718Z,2.37
2019-03-25T00:46:33.010Z,2.70
2019-03-25T00:49:05.398Z,2.30
2019-03-25T00:51:37.393Z,2.57
2019-03-25T00:54:08.661Z,2.20
2019-03-25T00:56:39.947Z,2.57
2019-03-25T00:59:11.261Z,2.97
2019-03-25T01:01:43.499Z,2.17
2019-03-25T01:04:14.819Z,2.80
2019-03-25T01:06:46.129Z,2.40
2019-03-25T01:09:17.407Z,2.40
2019-03-25T01:11:49.509Z,2.50
2019-03-25T01:14:20.846Z,2.83
2019-03-25T01:16:52.146Z,2.63
2019-03-25T01:19:23.468Z,2.23
2019-03-25T01:21:54.800Z,2.43
2019-03-25T01:24:26.079Z,2.57
2019-03-25T01:26:57.366Z,3.20
2019-03-25T01:29:28.670Z,2.43
2019-03-25T01:32:00.051Z,2.40
2019-03-25T01:34:31.358Z,3.30
2019-03-25T01:37:02.678Z,2.60
2019-03-25T01:39:34.012Z,2.50
2019-03-25T01:42:05.307Z,2.90
2019-03-25T01:44:36.595Z,2.97
2019-03-25T01:47:07.878Z,2.67
2019-03-25T01:49:39.159Z,2.70
2019-03-25T01:52:10.511Z,3.20
2019-03-25T01:54:41.796Z,2.43
2019-03-25T01:57:13.097Z,2.63
2019-03-25T01:59:44.392Z,2.83
2019-03-25T02:05:12.234Z,3.67
2019-03-25T02:07:43.507Z,3.63
2019-03-25T02:10:15.191Z,3.10
2019-03-25T02:12:46.489Z,3.23
2019-03-25T02:15:17.758Z,3.40
2019-03-25T02:17:49.067Z,3.57
2019-03-25T02:20:26.383Z,4.23
2019-03-25T02:22:53.524Z,4.30
2019-03-25T02:25:25.915Z,4.80
2019-03-25T02:27:57.416Z,3.93
2019-03-25T02:30:28.782Z,4.13
2019-03-25T02:33:02.936Z,4.70
2019-03-25T02:35:34.378Z,3.83
2019-03-25T02:38:05.707Z,4.90
2019-03-25T02:40:37.138Z,4.77
2019-03-25T02:43:08.721Z,4.83
2019-03-25T02:45:40.101Z,4.73
2019-03-25T02:48:11.382Z,4.30
2019-03-25T02:50:42.725Z,4.77
2019-03-25T02:53:15.222Z,4.43
2019-03-25T02:55:46.535Z,4.93
2019-03-25T02:58:18.868Z,5.33
2019-03-25T03:00:50.154Z,5.23
2019-03-25T03:03:21.490Z,5.43
2019-03-25T03:05:52.819Z,5.27
2019-03-25T03:08:24.113Z,5.40
2019-03-25T03:10:56.444Z,5.50
2019-03-25T03:13:27.742Z,5.90
2019-03-25T03:15:59.125Z,5.60
2019-03-25T03:18:30.412Z,5.50
2019-03-25T03:21:01.802Z,5.80
2019-03-25T03:23:33.111Z,6.17
2019-03-25T03:26:05.506Z,4.47
2019-03-25T03:28:36.936Z,2.87
2019-03-25T03:31:08.247Z,3.10
2019-03-25T03:33:39.606Z,3.07
2019-03-25T03:36:10.993Z,3.50
2019-03-25T03:38:42.300Z,3.17
2019-03-25T03:41:14.763Z,3.43
2019-03-25T03:43:46.146Z,3.50
2019-03-25T03:46:17.425Z,3.30
2019-03-25T03:48:48.771Z,3.30
2019-03-25T03:51:20.122Z,3.43
2019-03-25T03:53:52.157Z,3.57
2019-03-25T03:56:24.472Z,2.87
2019-03-25T03:58:55.886Z,2.07
2019-03-25T04:01:27.144Z,2.10
2019-03-25T04:03:58.423Z,1.43
2019-03-25T04:06:29.730Z,1.87
2019-03-25T04:09:01.105Z,1.50
2019-03-25T04:11:32.793Z,1.27
2019-03-25T04:14:04.216Z,1.30
2019-03-25T04:16:35.567Z,0.93
2019-03-25T04:19:06.869Z,1.00
2019-03-25T04:21:39.113Z,0.90
2019-03-25T04:24:10.394Z,1.27
2019-03-25T04:26:41.749Z,1.10
2019-03-25T04:29:13.153Z,1.13
2019-03-25T04:31:44.474Z,1.00
2019-03-25T04:34:15.824Z,1.00
2019-03-25T04:36:47.155Z,0.97
2019-03-25T04:39:18.494Z,1.10
2019-03-25T04:41:49.863Z,0.90
2019-03-25T04:44:21.163Z,0.90
2019-03-25T04:46:52.433Z,0.90
2019-03-25T04:49:23.717Z,0.97
2019-03-25T04:51:55.017Z,1.00
2019-03-25T04:54:27.289Z,1.27
2019-03-25T04:56:58.679Z,1.23
2019-03-25T04:59:30.044Z,0.90
2019-03-25T05:02:01.377Z,1.00
2019-03-25T05:04:32.774Z,1.40
2019-03-25T05:07:04.166Z,0.90
2019-03-25T05:09:35.496Z,1.00
2019-03-25T05:12:06.829Z,0.83
2019-03-25T05:14:38.200Z,0.70
2019-03-25T05:17:09.487Z,0.93
2019-03-25T05:19:40.808Z,1.07
2019-03-25T05:22:13.074Z,1.03
2019-03-25T05:24:44.369Z,0.70
2019-03-25T05:27:16.222Z,1.03
2019-03-25T05:29:47.521Z,1.07
2019-03-25T05:32:18.850Z,1.80
2019-03-25T05:34:50.147Z,2.33
2019-03-25T05:37:21.470Z,1.10
2019-03-25T05:39:52.820Z,0.87
2019-03-25T05:42:27.456Z,0.85
2019-03-25T05:44:58.745Z,1.00
2019-03-25T05:47:30.054Z,0.90
2019-03-25T05:50:02.301Z,1.00
2019-03-25T05:52:33.621Z,0.83
2019-03-25T05:55:05.419Z,1.23
2019-03-25T05:57:36.762Z,1.33
2019-03-25T06:00:08.094Z,1.17
2019-03-25T06:02:39.443Z,1.50
2019-03-25T06:05:10.897Z,1.03
2019-03-25T06:07:42.278Z,1.60
2019-03-25T06:10:13.571Z,1.17
2019-03-25T06:12:44.901Z,1.00
2019-03-25T06:15:17.741Z,1.20
2019-03-25T06:17:50.609Z,1.47
2019-03-25T06:20:21.911Z,1.80
2019-03-25T06:22:53.255Z,1.30
2019-03-25T06:25:24.550Z,1.20
2019-03-25T06:27:55.997Z,1.73
2019-03-25T06:30:27.323Z,1.53
2019-03-25T06:32:58.650Z,2.10
2019-03-25T06:35:30.508Z,2.43
2019-03-25T06:38:01.848Z,2.00
2019-03-25T06:40:33.182Z,2.10
2019-03-25T06:43:04.990Z,2.30
2019-03-25T06:45:36.325Z,1.80
2019-03-25T06:48:07.642Z,3.00
2019-03-25T06:50:39.946Z,2.20
2019-03-25T06:53:11.257Z,2.47
2019-03-25T06:55:43.153Z,2.73
2019-03-25T06:58:14.435Z,2.93
2019-03-25T07:00:45.767Z,2.90
2019-03-25T07:03:17.134Z,3.03
2019-03-25T07:05:48.510Z,2.90
2019-03-25T07:08:19.790Z,2.60
2019-03-25T07:10:51.089Z,2.90
2019-03-25T07:13:22.383Z,2.70
2019-03-25T07:15:53.805Z,3.67
2019-03-25T07:18:25.201Z,3.30
2019-03-25T07:20:56.532Z,3.53
2019-03-25T07:23:27.960Z,3.20
2019-03-25T07:25:59.245Z,4.43
2019-03-25T07:28:30.566Z,2.43
2019-03-25T07:31:01.890Z,2.73
2019-03-25T07:33:33.212Z,2.83
2019-03-25T07:36:04.826Z,2.83
2019-03-25T07:38:36.135Z,2.30
2019-03-25T07:41:07.430Z,2.80
2019-03-25T07:43:38.835Z,2.73
2019-03-25T07:46:10.195Z,2.73
2019-03-25T07:48:41.468Z,2.63
2019-03-25T07:51:12.786Z,2.40
2019-03-25T07:53:44.094Z,2.77
2019-03-25T07:56:15.944Z,2.70
2019-03-25T07:58:47.246Z,2.80
2019-03-25T08:01:18.647Z,2.87
2019-03-25T08:03:52.457Z,2.33
2019-03-25T08:06:25.142Z,2.20
2019-03-25T08:09:03.652Z,2.07
2019-03-25T08:11:29.533Z,1.40
2019-03-25T08:14:00.921Z,1.50
2019-03-25T08:16:32.347Z,0.90
2019-03-25T08:19:03.754Z,0.80
2019-03-25T08:21:35.050Z,0.40
2019-03-25T08:24:07.311Z,0.70
2019-03-25T08:26:38.598Z,0.63
2019-03-25T08:29:09.967Z,0.40
2019-03-25T08:31:41.323Z,0.50
2019-03-25T08:34:12.721Z,0.87
2019-03-25T08:36:44.064Z,0.47
2019-03-25T08:39:15.392Z,0.80
2019-03-25T08:41:46.681Z,0.83
2019-03-25T08:44:18.447Z,0.93
2019-03-25T08:46:50.786Z,0.93
2019-03-25T08:49:22.134Z,1.60
2019-03-25T08:51:53.557Z,1.63
2019-03-25T08:54:24.856Z,1.17
2019-03-25T08:56:56.690Z,1.50
2019-03-25T08:59:28.012Z,1.63
2019-03-25T09:01:59.286Z,1.50
2019-03-25T09:04:30.636Z,1.60
2019-03-25T09:07:01.938Z,1.70
2019-03-25T09:09:33.222Z,2.00
2019-03-25T09:12:04.523Z,1.10
2019-03-25T09:14:35.836Z,1.50
2019-03-25T09:17:08.194Z,1.97
2019-03-25T09:19:39.518Z,2.00
2019-03-25T09:22:10.850Z,2.17
2019-03-25T09:24:42.201Z,1.80
2019-03-25T09:27:13.502Z,1.13
2019-03-25T09:29:44.886Z,1.60
2019-03-25T09:32:16.178Z,1.20
2019-03-25T09:34:47.485Z,1.67
2019-03-25T09:37:18.825Z,1.13
2019-03-25T09:39:50.157Z,1.30
2019-03-25T09:42:21.524Z,1.23
2019-03-25T09:44:53.729Z,1.83
2019-03-25T09:47:25.039Z,0.77
2019-03-25T09:49:56.322Z,1.67
2019-03-25T09:52:38.141Z,1.40
2019-03-25T09:55:00.652Z,2.07
2019-03-25T09:57:31.931Z,1.20
2019-03-25T10:00:03.625Z,1.00
2019-03-25T10:02:34.962Z,0.70
2019-03-25T10:05:07.459Z,0.50
2019-03-25T10:07:38.760Z,0.73
2019-03-25T10:10:10.262Z,0.90
2019-03-25T10:12:41.583Z,0.67
2019-03-25T10:15:13.178Z,1.13
2019-03-25T10:17:44.462Z,0.73
2019-03-25T10:20:15.964Z,1.00
2019-03-25T10:22:47.258Z,1.17
2019-03-25T10:25:18.603Z,1.13
2019-03-25T10:27:49.907Z,1.03
2019-03-25T10:30:21.508Z,1.83
2019-03-25T10:32:52.833Z,1.00
2019-03-25T10:35:24.115Z,0.93
2019-03-25T10:37:55.392Z,1.13
2019-03-25T10:40:26.690Z,1.37
2019-03-25T10:42:58.014Z,1.23
2019-03-25T10:45:31.162Z,1.53
2019-03-25T10:48:02.456Z,1.90
2019-03-25T10:50:33.837Z,1.10
2019-03-25T10:53:05.230Z,1.70
2019-03-25T10:55:36.508Z,1.10
2019-03-25T10:58:07.832Z,1.10
2019-03-25T11:00:40.214Z,0.70
2019-03-25T11:03:12.687Z,1.13
2019-03-25T11:05:44.593Z,1.00
2019-03-25T11:08:15.906Z,1.30
2019-03-25T11:10:48.304Z,1.43
2019-03-25T11:13:19.657Z,1.13
2019-03-25T11:15:51.026Z,1.00
2019-03-25T11:18:22.334Z,1.50
2019-03-25T11:20:53.658Z,0.93
2019-03-25T11:23:25.011Z,0.90
2019-03-25T11:25:56.351Z,0.73
2019-03-25T11:28:27.795Z,1.17
2019-03-25T11:31:00.259Z,0.97
2019-03-25T11:33:31.583Z,0.83
2019-03-25T11:36:03.126Z,0.87
2019-03-25T11:38:34.478Z,1.40
2019-03-25T11:41:05.868Z,1.30
2019-03-25T11:43:37.156Z,1.23
2019-03-25T11:46:09.507Z,1.40
2019-03-25T11:48:40.882Z,1.27
2019-03-25T11:51:12.210Z,1.27
2019-03-25T11:53:43.498Z,1.30
2019-03-25T11:56:14.798Z,1.37
2019-03-25T11:58:46.179Z,1.43
2019-03-25T12:01:17.499Z,1.13
2019-03-25T12:03:48.801Z,1.57
2019-03-25T12:06:20.096Z,1.43
2019-03-25T12:08:51.424Z,0.97
2019-03-25T12:11:23.752Z,1.10
2019-03-25T12:13:55.187Z,0.93
2019-03-25T12:16:26.547Z,1.40
2019-03-25T12:18:57.868Z,0.87
2019-03-25T12:21:29.191Z,0.93
2019-03-25T12:24:00.511Z,1.10
2019-03-25T12:26:31.839Z,0.90
2019-03-25T12:29:03.233Z,0.90
2019-03-25T12:31:34.617Z,1.37
2019-03-25T12:34:06.068Z,1.57
2019-03-25T12:36:37.418Z,1.43
2019-03-25T12:39:08.989Z,1.10
2019-03-25T12:41:40.323Z,0.80
2019-03-25T12:44:11.701Z,0.60
2019-03-25T12:46:44.014Z,1.90
2019-03-25T12:49:15.337Z,1.00
2019-03-25T12:51:48.500Z,0.90
2019-03-25T12:54:19.936Z,1.20
2019-03-25T12:56:51.243Z,1.43
2019-03-25T12:59:23.624Z,1.70
2019-03-25T13:01:54.915Z,0.70
2019-03-25T13:04:26.221Z,1.03
2019-03-25T13:06:57.568Z,0.90
2019-03-25T13:09:28.951Z,1.20
2019-03-25T13:12:00.264Z,1.00
2019-03-25T13:14:31.585Z,1.23
2019-03-25T13:17:03.903Z,1.37
2019-03-25T13:19:35.224Z,0.80
2019-03-25T13:22:06.556Z,0.93
2019-03-25T13:24:37.931Z,1.33
2019-03-25T13:27:09.404Z,1.03
2019-03-25T13:29:51.801Z,1.13
2019-03-25T13:32:13.774Z,1.00
2019-03-25T13:34:45.149Z,1.60
2019-03-25T13:37:16.537Z,1.00
2019-03-25T13:39:47.943Z,1.00
2019-03-25T13:42:19.297Z,1.00
2019-03-25T13:44:50.652Z,1.23
2019-03-25T13:47:22.889Z,0.80
2019-03-25T13:49:54.194Z,1.60
2019-03-25T13:52:25.604Z,0.90
2019-03-25T13:54:57.930Z,1.23
2019-03-25T13:57:29.308Z,1.10
2019-03-25T14:00:03.737Z,1.40
2019-03-25T14:02:34.386Z,1.23
2019-03-25T14:05:06.112Z,1.43
2019-03-25T14:07:37.436Z,0.83
2019-03-25T14:10:09.097Z,1.10
2019-03-25T14:12:40.467Z,1.10
2019-03-25T14:15:12.103Z,1.40
2019-03-25T14:17:43.419Z,1.20
2019-03-25T14:20:14.881Z,1.60
2019-03-25T14:22:46.214Z,1.33
2019-03-25T14:25:17.580Z,1.40
2019-03-25T14:27:48.925Z,1.00
2019-03-25T14:30:20.441Z,1.13
2019-03-25T14:32:51.767Z,1.07
2019-03-25T14:35:23.106Z,1.97
2019-03-25T14:37:54.763Z,1.00
2019-03-25T14:40:26.170Z,1.10
2019-03-25T14:42:57.643Z,1.37
2019-03-25T14:45:28.999Z,1.50
2019-03-25T14:48:01.239Z,1.23
2019-03-25T14:50:32.602Z,1.03
2019-03-25T14:53:04.960Z,1.17
2019-03-25T14:55:36.263Z,0.83
2019-03-25T14:58:07.588Z,1.00
2019-03-25T15:00:39.613Z,1.73
2019-03-25T15:03:10.994Z,0.83
2019-03-25T15:05:42.355Z,1.00
2019-03-25T15:08:13.690Z,1.10
2019-03-25T15:10:53.212Z,1.73
2019-03-25T15:13:18.015Z,1.23
2019-03-25T15:15:49.329Z,1.17
2019-03-25T15:18:20.648Z,1.77
2019-03-25T15:20:51.950Z,1.20
2019-03-25T15:23:23.302Z,1.47
2019-03-25T15:25:54.636Z,1.50
2019-03-25T15:28:25.989Z,1.20
2019-03-25T15:30:57.287Z,1.10
2019-03-25T15:33:28.711Z,1.10
2019-03-25T15:36:00.084Z,1.30
2019-03-25T15:38:32.549Z,0.90
2019-03-25T15:41:03.976Z,0.93
2019-03-25T15:43:35.441Z,0.80
2019-03-25T15:46:06.758Z,0.97
2019-03-25T15:48:39.136Z,0.93
2019-03-25T15:51:10.474Z,0.80
2019-03-25T15:53:41.795Z,1.37
2019-03-25T15:56:13.141Z,0.70
2019-03-25T15:58:44.577Z,0.70
2019-03-25T16:01:16.404Z,0.90
2019-03-25T16:03:47.830Z,0.57
2019-03-25T16:06:19.159Z,0.80
2019-03-25T16:08:50.557Z,1.30
2019-03-25T16:11:22.865Z,1.40
2019-03-25T16:13:54.279Z,0.80
2019-03-25T16:16:25.680Z,0.93
2019-03-25T16:18:57.081Z,0.80
2019-03-25T16:21:28.421Z,0.67
2019-03-25T16:23:59.756Z,1.43
2019-03-25T16:26:31.098Z,1.03
2019-03-25T16:29:02.551Z,1.23
2019-03-25T16:31:33.984Z,1.17
2019-03-25T16:34:05.323Z,1.50
2019-03-25T16:36:36.654Z,1.43
2019-03-25T16:39:08.854Z,1.10
2019-03-25T16:41:40.261Z,0.87
2019-03-25T16:44:11.675Z,1.00
2019-03-25T16:46:43.044Z,1.40
2019-03-25T16:49:15.389Z,0.67
2019-03-25T16:51:46.769Z,1.10
2019-03-25T16:54:18.198Z,0.87
2019-03-25T16:56:49.506Z,1.20
2019-03-25T16:59:20.845Z,0.87
2019-03-25T17:01:52.519Z,1.20
2019-03-25T17:04:24.640Z,1.33
2019-03-25T17:06:55.969Z,1.17
2019-03-25T17:09:27.399Z,1.30
2019-03-25T17:12:00.069Z,1.13
2019-03-25T17:14:31.460Z,1.13
2019-03-25T17:17:03.026Z,1.37
2019-03-25T17:19:34.467Z,0.73
2019-03-25T17:22:06.979Z,1.20
2019-03-25T17:24:38.403Z,0.93
2019-03-25T17:27:09.791Z,1.30
2019-03-25T17:29:41.210Z,1.13
2019-03-25T17:32:15.452Z,1.03
2019-03-25T17:34:46.804Z,1.43
2019-03-25T17:37:18.131Z,1.50
2019-03-25T17:39:49.442Z,1.43
2019-03-25T17:42:20.770Z,0.90
2019-03-25T17:44:52.186Z,1.00
2019-03-25T17:47:23.551Z,1.33
2019-03-25T17:49:55.010Z,2.00
2019-03-25T17:52:26.842Z,1.17
2019-03-25T17:54:59.249Z,1.40
2019-03-25T17:57:30.699Z,1.20
2019-03-25T18:00:02.051Z,1.00
2019-03-25T18:02:33.511Z,1.90
2019-03-25T18:05:05.790Z,2.20
2019-03-25T18:07:37.072Z,1.00
2019-03-25T18:10:08.843Z,1.43
2019-03-25T18:12:40.179Z,1.73
2019-03-25T18:15:12.355Z,1.60
2019-03-25T18:17:43.706Z,1.50
2019-03-25T18:20:18.795Z,1.53
2019-03-25T18:22:48.205Z,1.90
2019-03-25T18:25:19.633Z,1.60
2019-03-25T18:27:51.015Z,1.53
2019-03-25T18:30:31.223Z,1.90
2019-03-25T18:33:02.549Z,1.57
2019-03-25T18:35:33.869Z,1.53
2019-03-25T18:38:05.190Z,1.20
2019-03-25T18:40:36.695Z,1.87
2019-03-25T18:43:08.022Z,1.60
2019-03-25T18:45:39.392Z,1.57
2019-03-25T18:48:10.826Z,2.00
2019-03-25T18:50:43.302Z,1.60
2019-03-25T18:53:14.825Z,1.70
2019-03-25T18:55:46.250Z,1.87
2019-03-25T18:58:17.692Z,2.60
2019-03-25T19:00:49.125Z,1.37
2019-03-25T19:03:20.567Z,2.60
2019-03-25T19:05:52.197Z,1.87
2019-03-25T19:08:23.812Z,1.63
2019-03-25T19:10:55.220Z,2.37
2019-03-25T19:13:28.350Z,1.40
2019-03-25T19:15:59.785Z,1.80
2019-03-25T19:18:31.251Z,1.63
2019-03-25T19:21:02.664Z,1.80
2019-03-25T19:23:34.089Z,1.40
2019-03-25T19:26:05.495Z,1.70
2019-03-25T19:28:37.004Z,1.87
2019-03-25T19:31:08.443Z,1.70
2019-03-25T19:33:39.853Z,1.73
2019-03-25T19:36:11.287Z,1.67
2019-03-25T19:38:42.722Z,2.30
2019-03-25T19:41:14.497Z,1.50
2019-03-25T19:43:46.006Z,2.30
2019-03-25T19:46:17.517Z,1.63
2019-03-25T19:48:48.975Z,1.80
2019-03-25T19:51:20.407Z,1.23
2019-03-25T19:53:51.908Z,1.90
2019-03-25T19:56:23.292Z,1.37
2019-03-25T19:58:54.842Z,1.50
2019-03-25T20:04:23.429Z,1.57
2019-03-25T20:06:54.870Z,1.90
2019-03-25T20:09:26.200Z,2.03
2019-03-25T20:11:57.664Z,1.90
2019-03-25T20:14:29.198Z,1.63
2019-03-25T20:17:00.614Z,2.30
2019-03-25T20:19:32.078Z,2.07
2019-03-25T20:22:03.564Z,2.53
2019-03-25T20:24:35.065Z,2.53
2019-03-25T20:27:06.492Z,2.10
2019-03-25T20:29:38.945Z,2.00
2019-03-25T20:32:10.357Z,1.97
2019-03-25T20:34:41.913Z,1.33
2019-03-25T20:37:13.399Z,1.93
2019-03-25T20:39:44.936Z,1.57
2019-03-25T20:42:16.462Z,1.47
2019-03-25T20:44:48.921Z,1.77
2019-03-25T20:47:20.322Z,2.23
2019-03-25T20:49:51.797Z,1.30
2019-03-25T20:52:24.570Z,1.60
2019-03-25T20:54:56.285Z,1.40
2019-03-25T20:57:27.713Z,1.87
2019-03-25T20:59:59.184Z,1.33
2019-03-25T21:02:30.605Z,1.10
2019-03-25T21:05:02.013Z,1.30
2019-03-25T21:07:34.455Z,1.33
2019-03-25T21:10:07.047Z,1.10
2019-03-25T21:12:38.706Z,1.33
2019-03-25T21:15:11.033Z,0.90
2019-03-25T21:17:42.500Z,1.80
2019-03-25T21:20:14.100Z,1.23
2019-03-25T21:22:46.417Z,1.47
2019-03-25T21:25:17.889Z,1.70
2019-03-25T21:27:49.422Z,1.37
2019-03-25T21:30:20.992Z,1.30
2019-03-25T21:32:58.182Z,1.20
2019-03-25T21:35:25.523Z,1.90
2019-03-25T21:37:56.870Z,2.10
2019-03-25T21:40:28.278Z,2.33
2019-03-25T21:43:00.320Z,1.70
2019-03-25T21:45:31.763Z,2.17
2019-03-25T21:48:03.129Z,2.23
2019-03-25T21:50:34.862Z,1.60
2019-03-25T21:53:06.302Z,1.90
2019-03-25T21:55:37.825Z,1.53
2019-03-25T21:58:09.347Z,1.57
2019-03-25T22:00:42.146Z,2.17
2019-03-25T22:03:14.567Z,2.17
2019-03-25T22:05:45.882Z,2.10
2019-03-25T22:08:17.246Z,2.07
2019-03-25T22:10:48.593Z,1.60
2019-03-25T22:13:20.034Z,2.20
2019-03-25T22:15:51.439Z,2.57
2019-03-25T22:18:22.763Z,2.23
2019-03-25T22:20:54.062Z,2.10
2019-03-25T22:23:25.593Z,2.50
2019-03-25T22:25:56.981Z,3.40
2019-03-25T22:28:28.367Z,3.10
2019-03-25T22:30:59.777Z,2.40
2019-03-25T22:33:31.271Z,4.50
2019-03-25T22:36:02.646Z,2.03
2019-03-25T22:38:34.069Z,2.53
2019-03-25T22:41:05.390Z,1.70
2019-03-25T22:43:37.604Z,2.60
2019-03-25T22:46:08.878Z,2.50
2019-03-25T22:48:40.207Z,2.17
2019-03-25T22:51:11.538Z,2.27
2019-03-25T22:53:42.831Z,2.23
2019-03-25T22:56:14.149Z,1.67
2019-03-25T22:58:45.470Z,2.27
2019-03-25T23:01:16.979Z,2.90
2019-03-25T23:03:48.300Z,1.63
2019-03-25T23:06:19.702Z,1.80
2019-03-25T23:08:51.087Z,1.80
2019-03-25T23:11:22.409Z,2.30
2019-03-25T23:13:53.723Z,1.90
2019-03-25T23:16:25.042Z,1.97
2019-03-25T23:18:56.733Z,1.97
2019-03-25T23:21:28.044Z,2.10
2019-03-25T23:23:59.320Z,1.90
2019-03-25T23:26:30.701Z,2.00
2019-03-25T23:29:01.987Z,2.03
2019-03-25T23:31:33.295Z,2.10
2019-03-25T23:34:04.687Z,2.60
2019-03-25T23:36:36.042Z,2.73
2019-03-25T23:39:08.109Z,2.00
2019-03-25T23:41:39.413Z,2.30
2019-03-25T23:44:11.612Z,2.00
2019-03-25T23:46:43.017Z,3.03
2019-03-25T23:49:14.360Z,2.23
2019-03-25T23:51:45.673Z,2.47
2019-03-25T23:54:16.959Z,2.33
2019-03-25T23:56:48.266Z,2.13
2019-03-25T23:59:19.552Z,2.23
